Time;durP1;ratioP1;P1;durP2;ratioP2;P2;SDS_P1;SDS_P2;PMS_P1;PMS_P2;Temp;Humidity;BMP_temperature;BMP_pressure;BME280_temperature;BME280_humidity;BME280_pressure;Samples;Min_cycle;Max_cycle;Signal;HPM_P1;HPM_P2
2022/08/14 00:00:51;;;;;;;16.67;7.60;;;;;;;26.61;100.00;99197.16;1838986;78;21533;-75
2022/08/14 00:03:27;;;;;;;10.60;7.33;;;;;;;26.59;100.00;99201.67;1839079;78;20964;-74
2022/08/14 00:05:55;;;;;;;11.33;7.65;;;;;;;26.66;100.00;99203.53;1839618;77;21482;-75
2022/08/14 00:08:22;;;;;;;12.25;7.95;;;;;;;26.60;100.00;99196.19;1837627;78;20977;-74
2022/08/14 00:10:51;;;;;;;15.10;7.50;;;;;;;26.58;100.00;99199.45;1837045;78;21014;-74
2022/08/14 00:13:22;;;;;;;12.65;7.90;;;;;;;26.56;100.00;99196.27;1834681;78;21008;-73
2022/08/14 00:15:50;;;;;;;12.98;8.33;;;;;;;26.53;100.00;99203.44;1839029;78;21007;-73
2022/08/14 00:18:22;;;;;;;11.93;7.70;;;;;;;26.66;100.00;99202.13;1838655;78;20968;-72
2022/08/14 00:20:49;;;;;;;13.50;8.15;;;;;;;26.67;100.00;99200.27;1839224;78;20980;-73
2022/08/14 00:23:18;;;;;;;14.47;7.67;;;;;;;26.65;100.00;99202.73;1839441;78;21011;-75
2022/08/14 00:25:51;;;;;;;12.30;7.10;;;;;;;26.63;100.00;99203.78;1839584;77;21019;-70
2022/08/14 00:28:18;;;;;;;12.03;7.33;;;;;;;26.59;100.00;99198.23;1839185;78;21007;-71
2022/08/14 00:30:49;;;;;;;11.65;6.87;;;;;;;26.60;100.00;99201.83;1838989;78;21182;-73
2022/08/14 00:33:16;;;;;;;18.67;7.87;;;;;;;26.64;100.00;99203.17;1823141;78;20988;-73
2022/08/14 00:35:44;;;;;;;16.95;7.47;;;;;;;26.61;100.00;99197.80;1839122;78;21012;-74
2022/08/14 00:38:11;;;;;;;11.75;7.55;;;;;;;26.62;100.00;99199.38;1808484;78;21003;-72
2022/08/14 00:40:38;;;;;;;17.37;7.25;;;;;;;26.63;100.00;99195.30;1839455;78;21109;-73
2022/08/14 00:43:06;;;;;;;14.35;7.30;;;;;;;26.62;100.00;99197.96;1839705;77;21469;-74
2022/08/14 00:45:33;;;;;;;10.95;7.58;;;;;;;26.60;100.00;99191.95;1839111;78;21047;-75
2022/08/14 00:48:05;;;;;;;20.60;7.65;;;;;;;26.60;100.00;99196.19;1834559;78;21487;-74
2022/08/14 00:50:32;;;;;;;10.93;7.15;;;;;;;26.59;100.00;99198.84;1839480;77;21497;-69
2022/08/14 00:52:59;;;;;;;12.50;7.85;;;;;;;26.55;100.00;99195.30;1833982;77;21032;-75
2022/08/14 00:55:30;;;;;;;9.83;7.30;;;;;;;26.54;100.00;99189.48;1851374;77;21113;-75
2022/08/14 01:00:39;;;;;;;12.00;7.40;;;;;;;26.51;100.00;99193.19;1851559;77;21490;-72
2022/08/14 01:03:13;;;;;;;18.10;7.12;;;;;;;26.49;100.00;99187.34;1846398;77;21031;-75
2022/08/14 01:05:39;;;;;;;12.47;6.87;;;;;;;26.51;100.00;99181.89;1850556;77;21047;-73
2022/08/14 01:08:07;;;;;;;14.60;7.05;;;;;;;26.48;100.00;99187.78;1850796;77;21042;-72
2022/08/14 01:11:08;;;;;;;10.78;7.47;;;;;;;26.46;100.00;99188.22;1844967;77;20955;-72
2022/08/14 01:13:19;;;;;;;13.18;7.17;;;;;;;26.48;100.00;99183.55;1825519;77;21018;-73
2022/08/14 01:15:50;;;;;;;14.23;7.22;;;;;;;26.48;100.00;99187.78;1851032;77;20994;-75
2022/08/14 01:21:11;;;;;;;13.60;7.55;;;;;;;26.46;100.00;99191.69;1851409;77;21020;-75
2022/08/14 01:23:41;;;;;;;13.48;7.70;;;;;;;26.44;100.00;99196.97;1850711;77;20975;-70
2022/08/14 01:26:08;;;;;;;17.70;7.30;;;;;;;26.40;100.00;99198.45;1850241;77;21006;-71
2022/08/14 01:28:36;;;;;;;15.60;8.35;;;;;;;26.36;100.00;99197.12;1850864;77;21030;-74
2022/08/14 01:31:07;;;;;;;13.15;7.15;;;;;;;26.35;100.00;99196.15;1837803;77;21090;-72
2022/08/14 01:33:43;;;;;;;11.73;7.50;;;;;;;26.35;100.00;99203.20;1845753;77;21075;-74
2022/08/14 01:36:08;;;;;;;19.10;7.75;;;;;;;26.34;100.00;99203.04;1849919;77;22371;-70
2022/08/14 01:38:38;;;;;;;10.85;7.40;;;;;;;26.34;100.00;99195.98;1851063;77;21072;-72
2022/08/14 01:41:13;;;;;;;16.50;7.87;;;;;;;26.34;100.00;99193.16;1846175;77;21496;-75
2022/08/14 01:44:00;;;;;;;12.07;7.28;;;;;;;26.36;100.00;99194.91;1845978;77;20959;-72
2022/08/14 01:46:35;;;;;;;12.33;7.47;;;;;;;26.35;100.00;99195.54;1849101;77;20939;-73
2022/08/14 01:49:10;;;;;;;11.80;7.00;;;;;;;26.37;100.00;99194.47;1851462;77;21016;-73
2022/08/14 01:51:38;;;;;;;14.23;6.70;;;;;;;26.38;100.00;99192.45;1850786;77;23014;-70
2022/08/14 01:54:20;;;;;;;18.52;7.53;;;;;;;26.36;100.00;99191.47;1839164;77;20999;-73
2022/08/14 01:56:44;;;;;;;14.87;7.87;;;;;;;26.36;100.00;99194.30;1835289;78;21044;-72
2022/08/14 01:59:31;;;;;;;15.55;7.70;;;;;;;26.34;100.00;99203.04;1833900;78;21047;-73
2022/08/14 02:02:11;;;;;;;11.78;7.80;;;;;;;26.33;100.00;99199.98;1836692;78;21488;-74
2022/08/14 02:04:35;;;;;;;15.32;7.67;;;;;;;26.30;100.00;99196.02;1837400;78;21588;-76
2022/08/14 02:07:03;;;;;;;11.33;7.03;;;;;;;26.32;100.00;99194.17;1830366;78;21004;-73
2022/08/14 02:09:36;;;;;;;10.38;7.47;;;;;;;26.29;100.00;99194.41;1839384;78;21013;-73
2022/08/14 02:12:06;;;;;;;11.22;7.40;;;;;;;26.28;100.00;99192.03;1837432;78;21024;-74
2022/08/14 02:14:33;;;;;;;9.83;6.83;;;;;;;26.31;100.00;99191.95;1839136;78;20985;-71
2022/08/14 02:17:01;;;;;;;10.80;7.12;;;;;;;26.17;100.00;99184.59;1839740;78;20957;-74
2022/08/14 02:19:34;;;;;;;16.67;8.08;;;;;;;26.23;100.00;99184.28;1834767;78;21026;-72
2022/08/14 02:22:05;;;;;;;12.03;7.25;;;;;;;26.31;100.00;99184.09;1839241;77;20999;-76
2022/08/14 02:24:33;;;;;;;14.55;7.72;;;;;;;26.29;100.00;99190.82;1839411;78;21205;-72
2022/08/14 02:27:04;;;;;;;9.73;7.08;;;;;;;26.31;100.00;99188.33;1833745;78;21059;-73
2022/08/14 02:29:31;;;;;;;14.65;7.55;;;;;;;26.26;100.00;99192.47;1839168;78;21008;-73
2022/08/14 02:32:05;;;;;;;12.80;7.60;;;;;;;26.22;100.00;99186.91;1803823;78;21048;-74
2022/08/14 02:34:35;;;;;;;14.73;6.72;;;;;;;26.22;100.00;99192.55;1839057;78;21058;-74
2022/08/14 02:37:11;;;;;;;11.95;7.12;;;;;;;26.14;100.00;99193.94;1834335;78;20967;-74
2022/08/14 02:39:42;;;;;;;11.78;7.10;;;;;;;26.04;100.00;99196.36;1834389;78;21069;-72
2022/08/14 02:42:16;;;;;;;13.40;7.20;;;;;;;26.05;100.00;99198.75;1838978;78;21492;-75
2022/08/14 02:44:43;;;;;;;12.43;6.05;;;;;;;26.01;100.00;99199.45;1838431;78;21456;-73
2022/08/14 02:47:10;;;;;;;12.53;7.60;;;;;;;26.00;100.00;99198.65;1839137;78;21051;-74
2022/08/14 02:49:48;;;;;;;12.40;7.40;;;;;;;26.05;100.00;99196.56;1839097;78;21007;-73
2022/08/14 02:52:16;;;;;;;9.65;6.83;;;;;;;25.96;100.00;99197.14;1833111;78;21465;-72
2022/08/14 02:54:51;;;;;;;14.18;7.75;;;;;;;25.99;100.00;99192.84;1856148;77;20976;-74
2022/08/14 02:57:17;;;;;;;10.53;7.72;;;;;;;26.01;100.00;99199.45;1850385;77;20990;-76
2022/08/14 02:59:49;;;;;;;16.55;7.30;;;;;;;26.01;100.00;99199.45;1857210;76;21027;-70
2022/08/14 03:02:20;;;;;;;12.63;7.65;;;;;;;25.96;100.00;99199.96;1857252;77;21757;-73
2022/08/14 03:04:49;;;;;;;14.10;7.05;;;;;;;25.91;100.00;99198.45;1857139;77;20997;-74
2022/08/14 03:07:24;;;;;;;11.65;7.12;;;;;;;25.91;100.00;99198.45;1856631;77;21002;-71
2022/08/14 03:09:53;;;;;;;13.18;7.08;;;;;;;25.92;100.00;99199.22;1855617;77;21027;-71
2022/08/14 03:12:20;;;;;;;10.18;7.15;;;;;;;25.86;100.00;99197.55;1856733;77;20969;-75
2022/08/14 03:14:50;;;;;;;11.03;7.25;;;;;;;25.91;100.00;99192.81;1786351;80;21138;-73
2022/08/14 03:17:17;;;;;;;11.68;8.28;;;;;;;25.87;100.00;99192.87;1857084;77;20980;-71
2022/08/14 03:19:51;;;;;;;14.80;6.97;;;;;;;25.84;100.00;99189.52;1856904;77;21028;-72
2022/08/14 03:22:17;;;;;;;11.75;7.00;;;;;;;25.84;100.00;99197.17;1857101;77;21020;-71
2022/08/14 03:24:47;;;;;;;13.43;6.80;;;;;;;25.88;100.00;99191.63;1857129;77;21010;-71
2022/08/14 03:27:17;;;;;;;11.73;6.87;;;;;;;25.89;100.00;99195.26;1856891;77;49679;-74
2022/08/14 03:29:46;;;;;;;10.32;6.90;;;;;;;25.90;100.00;99192.61;1832929;76;21242;-74
2022/08/14 03:32:15;;;;;;;11.43;5.95;;;;;;;25.88;100.00;99195.86;1836408;76;21038;-73
2022/08/14 03:34:49;;;;;;;12.93;6.90;;;;;;;25.88;100.00;99197.88;1841432;76;20901;-71
2022/08/14 03:37:16;;;;;;;15.40;7.28;;;;;;;25.89;100.00;99196.67;1857400;76;20971;-75
2022/08/14 03:39:43;;;;;;;13.13;6.65;;;;;;;25.94;100.00;99194.75;1858389;76;21136;-74
2022/08/14 03:42:14;;;;;;;11.00;6.92;;;;;;;25.98;100.00;99198.91;1855551;76;20992;-74
2022/08/14 03:44:42;;;;;;;17.37;7.30;;;;;;;25.99;100.00;99198.48;1857482;76;21200;-75
2022/08/14 03:47:11;;;;;;;13.60;7.35;;;;;;;26.02;100.00;99198.21;1802995;78;21039;-74
2022/08/14 03:49:39;;;;;;;7.42;6.65;;;;;;;26.04;100.00;99203.42;1805356;78;21487;-75
2022/08/14 03:52:06;;;;;;;15.05;7.20;;;;;;;26.05;100.00;99200.80;1807247;78;21112;-73
2022/08/14 03:54:34;;;;;;;11.18;7.15;;;;;;;26.06;100.00;99194.72;1787236;78;21000;-73
2022/08/14 03:57:04;;;;;;;14.55;7.10;;;;;;;26.10;100.00;99203.88;1773911;79;21004;-75
2022/08/14 03:59:34;;;;;;;17.25;6.60;;;;;;;26.12;100.00;99200.63;1794839;79;21059;-70
2022/08/14 04:02:03;;;;;;;11.63;6.92;;;;;;;26.10;100.00;99205.30;1757549;79;21582;-74
2022/08/14 04:04:30;;;;;;;14.43;7.58;;;;;;;26.07;100.00;99198.31;1787475;79;21116;-74
2022/08/14 04:06:59;;;;;;;14.80;7.00;;;;;;;26.06;100.00;99196.73;1792276;79;21076;-76
2022/08/14 04:09:26;;;;;;;12.23;7.08;;;;;;;26.07;100.00;99196.30;1795192;79;21072;-74
2022/08/14 04:11:54;;;;;;;12.55;6.58;;;;;;;26.05;100.00;99187.46;1789023;79;21001;-74
2022/08/14 04:14:21;;;;;;;11.22;7.30;;;;;;;26.04;100.00;99185.08;1789899;79;21191;-74
2022/08/14 04:16:48;;;;;;;9.23;7.50;;;;;;;26.04;100.00;99182.25;1786710;79;21210;-71
2022/08/14 04:19:18;;;;;;;9.95;6.62;;;;;;;26.02;100.00;99177.05;1792538;79;21442;-76
2022/08/14 04:21:45;;;;;;;20.15;6.50;;;;;;;26.00;100.00;99177.48;1789184;79;21067;-75
2022/08/14 04:24:13;;;;;;;10.65;6.83;;;;;;;25.98;100.00;99180.58;1790352;79;21039;-74
2022/08/14 04:26:45;;;;;;;11.83;6.87;;;;;;;25.97;100.00;99180.38;1778641;79;21476;-72
2022/08/14 04:29:12;;;;;;;12.30;7.30;;;;;;;25.95;100.00;99179.41;1787266;79;21095;-74
2022/08/14 04:31:39;;;;;;;10.68;7.22;;;;;;;25.94;100.00;99186.29;1788680;79;20988;-75
2022/08/14 04:34:06;;;;;;;13.40;8.15;;;;;;;25.96;100.00;99182.42;1788817;79;20981;-73
2022/08/14 04:43:34;;;;;;;15.23;7.28;;;;;;;25.92;100.00;99173.83;1797505;79;21007;-73
2022/08/14 04:44:35;;;;;;;10.35;7.12;;;;;;;25.89;100.00;99175.52;1786425;79;21420;-74
2022/08/14 04:49:53;;;;;;;11.65;7.08;;;;;;;25.88;100.00;99173.30;1785864;79;20984;-72
2022/08/14 04:52:21;;;;;;;12.10;6.97;;;;;;;25.87;100.00;99174.53;1789475;79;20996;-74
2022/08/14 04:54:56;;;;;;;13.40;6.83;;;;;;;25.89;100.00;99172.69;1787950;78;21003;-75
2022/08/14 04:57:23;;;;;;;12.00;7.12;;;;;;;25.86;100.00;99180.62;1798102;79;21508;-74
2022/08/14 04:59:53;;;;;;;10.10;7.15;;;;;;;25.80;100.00;99180.92;1817254;77;21033;-74
2022/08/14 05:02:23;;;;;;;11.50;7.17;;;;;;;25.79;100.00;99180.75;1826098;78;20973;-72
2022/08/14 05:04:49;;;;;;;12.47;7.35;;;;;;;25.84;100.00;99184.48;1822009;78;21509;-73
2022/08/14 05:07:20;;;;;;;10.30;7.40;;;;;;;25.85;100.00;99184.05;1821574;78;21012;-75
2022/08/14 05:09:48;;;;;;;17.42;6.67;;;;;;;25.93;100.00;99187.50;1822654;78;20993;-76
2022/08/14 05:12:16;;;;;;;14.47;7.03;;;;;;;25.97;100.00;99181.19;1822215;78;21012;-72
2022/08/14 05:14:49;;;;;;;11.28;7.75;;;;;;;26.03;100.00;99183.50;1817455;78;21021;-74
2022/08/14 05:17:16;;;;;;;13.75;6.87;;;;;;;26.00;100.00;99178.09;1822381;78;21063;-71
2022/08/14 05:19:44;;;;;;;20.92;6.95;;;;;;;26.04;100.00;99178.02;1841166;76;21221;-73
2022/08/14 05:22:16;;;;;;;11.08;6.75;;;;;;;26.09;100.00;99185.37;1775478;80;21511;-74
2022/08/14 05:24:49;;;;;;;17.37;6.70;;;;;;;26.14;100.00;99184.05;1807829;77;20973;-74
2022/08/14 05:27:18;;;;;;;11.90;6.70;;;;;;;26.25;100.00;99181.79;1822742;78;21453;-72
2022/08/14 05:29:46;;;;;;;8.88;7.35;;;;;;;26.27;100.00;99192.67;1821549;78;21017;-74
2022/08/14 05:32:12;;;;;;;9.88;6.95;;;;;;;26.26;100.00;99186.83;1821631;78;21516;-74
2022/08/14 05:34:46;;;;;;;16.90;7.12;;;;;;;26.31;100.00;99183.48;1766301;79;21007;-73
2022/08/14 05:37:13;;;;;;;14.85;7.08;;;;;;;26.36;100.00;99183.61;1813789;77;21461;-71
2022/08/14 05:39:40;;;;;;;14.70;6.70;;;;;;;26.42;100.00;99188.13;1805849;78;20972;-74
2022/08/14 05:42:08;;;;;;;11.10;6.92;;;;;;;26.46;100.00;99183.21;1805632;78;21105;-74
2022/08/14 05:44:44;;;;;;;8.85;6.45;;;;;;;26.50;100.00;99186.73;1772374;80;20964;-73
2022/08/14 05:47:12;;;;;;;10.38;6.28;;;;;;;26.57;100.00;99193.64;1833683;77;21015;-74
2022/08/14 05:49:47;;;;;;;15.68;7.25;;;;;;;26.60;100.00;99192.75;1814979;77;20992;-74
2022/08/14 05:52:13;;;;;;;9.55;6.25;;;;;;;26.62;100.00;99186.66;1833860;77;21099;-74
2022/08/14 05:54:41;;;;;;;12.63;6.15;;;;;;;26.65;100.00;99181.55;1835467;77;21070;-76
2022/08/14 05:57:08;;;;;;;12.15;7.75;;;;;;;26.64;100.00;99185.61;1847917;77;21143;-73
2022/08/14 05:59:47;;;;;;;9.58;6.80;;;;;;;26.71;100.00;99181.22;1845473;77;21027;-75
2022/08/14 06:02:31;;;;;;;9.98;7.00;;;;;;;26.72;100.00;99185.62;1838209;77;20984;-75
2022/08/14 06:05:02;;;;;;;10.15;7.30;;;;;;;26.75;100.00;99178.28;1846931;77;21024;-74
2022/08/14 06:07:39;;;;;;;13.22;6.90;;;;;;;26.83;100.00;99181.75;1845021;77;21010;-74
2022/08/14 06:10:09;;;;;;;11.68;7.17;;;;;;;26.85;100.00;99185.70;1819532;77;21625;-74
2022/08/14 06:12:39;;;;;;;10.70;7.67;;;;;;;26.89;100.00;99181.99;1842785;77;20963;-73
2022/08/14 06:15:06;;;;;;;10.95;6.62;;;;;;;26.91;100.00;99181.74;1845797;76;21483;-74
2022/08/14 06:17:49;;;;;;;10.23;8.00;;;;;;;26.93;100.00;99175.03;1844449;77;20983;-69
2022/08/14 06:20:16;;;;;;;9.05;7.35;;;;;;;26.97;100.00;99174.95;1846988;77;20975;-70
2022/08/14 06:22:47;;;;;;;14.85;7.37;;;;;;;26.90;100.00;99175.12;1847084;77;21153;-74
2022/08/14 06:25:21;;;;;;;10.80;7.00;;;;;;;26.97;100.00;99171.48;1844061;77;21051;-75
2022/08/14 06:27:49;;;;;;;12.33;8.03;;;;;;;27.05;100.00;99168.52;1848532;77;21039;-73
2022/08/14 06:30:28;;;;;;;8.63;7.17;;;;;;;27.08;100.00;99171.86;1836367;77;21615;-74
2022/08/14 06:32:56;;;;;;;13.83;6.67;;;;;;;27.13;100.00;99171.33;1849645;76;21050;-71
2022/08/14 06:35:24;;;;;;;14.70;7.85;;;;;;;27.14;100.00;99177.17;1848901;77;21053;-73
2022/08/14 06:37:58;;;;;;;10.70;7.10;;;;;;;27.17;100.00;99177.70;1852155;77;20975;-71
2022/08/14 06:40:30;;;;;;;11.90;7.20;;;;;;;27.16;100.00;99180.33;1851721;77;21014;-77
2022/08/14 06:43:01;;;;;;;10.28;6.87;;;;;;;27.17;100.00;99184.77;1847662;77;20963;-74
2022/08/14 06:45:28;;;;;;;9.85;7.58;;;;;;;27.26;100.00;99183.34;1851761;77;21059;-73
2022/08/14 06:47:54;;;;;;;12.60;7.15;;;;;;;27.30;100.00;99181.20;1844810;77;21661;-74
2022/08/14 06:50:22;;;;;;;9.98;7.28;;;;;;;27.39;100.00;99183.39;1842341;77;21546;-74
2022/08/14 06:52:51;;;;;;;9.45;6.75;;;;;;;27.45;100.00;99184.44;1843745;77;21150;-71
2022/08/14 06:55:23;;;;;;;8.48;7.05;;;;;;;27.51;100.00;99186.11;1820969;76;21022;-76
2022/08/14 06:57:50;;;;;;;16.65;7.75;;;;;;;27.58;100.00;99185.92;1833921;78;21497;-73
2022/08/14 07:00:25;;;;;;;13.03;7.25;;;;;;;27.62;100.00;99188.02;1830241;78;21480;-70
2022/08/14 07:05:48;;;;;;;10.50;7.60;;;;;;;27.68;100.00;99186.25;1834886;78;21682;-74
2022/08/14 07:08:25;;;;;;;9.50;7.95;;;;;;;27.69;100.00;99181.39;1837382;78;21015;-73
2022/08/14 07:11:02;;;;;;;16.15;8.75;;;;;;;27.75;100.00;99185.28;1827962;76;21032;-75
2022/08/14 07:13:35;;;;;;;18.67;10.03;;;;;;;27.83;100.00;99181.62;1830053;78;20992;-71
2022/08/14 07:16:08;;;;;;;18.57;9.88;;;;;;;27.87;100.00;99182.94;1833913;78;21041;-73
2022/08/14 07:18:35;;;;;;;12.95;8.05;;;;;;;27.81;100.00;99187.73;1834615;77;21599;-70
2022/08/14 07:21:04;;;;;;;18.60;7.85;;;;;;;27.79;100.00;99183.13;1803958;78;21024;-74
2022/08/14 07:23:33;;;;;;;12.88;7.78;;;;;;;27.81;100.00;99187.73;1788536;78;21002;-72
2022/08/14 07:26:01;;;;;;;14.20;7.95;;;;;;;27.88;100.00;99188.75;1819958;78;21846;-72
2022/08/14 07:28:35;;;;;;;10.35;7.03;;;;;;;27.85;100.00;99191.88;1822645;77;21078;-75
2022/08/14 07:31:03;;;;;;;12.68;7.75;;;;;;;27.88;100.00;99186.73;1836115;78;20994;-75
2022/08/14 07:33:39;;;;;;;13.28;7.72;;;;;;;27.91;100.00;99190.71;1835954;77;20996;-75
2022/08/14 07:36:09;;;;;;;10.58;7.20;;;;;;;27.95;100.00;99187.94;1788449;79;21027;-72
2022/08/14 07:38:35;;;;;;;17.00;7.78;;;;;;;27.99;100.00;99191.28;1833345;77;21105;-76
2022/08/14 07:41:04;;;;;;;10.03;7.90;;;;;;;28.01;100.00;99187.39;1833343;77;21499;-72
2022/08/14 07:43:33;;;;;;;11.53;7.70;;;;;;;28.05;100.00;99190.89;1874157;76;21507;-74
2022/08/14 07:46:03;;;;;;;9.98;7.37;;;;;;;28.14;100.00;99185.37;1846508;76;21050;-71
2022/08/14 07:48:37;;;;;;;12.05;6.60;;;;;;;28.21;100.00;99181.54;1843853;77;21000;-74
2022/08/14 07:51:04;;;;;;;14.63;7.87;;;;;;;28.28;100.00;99181.33;1846835;76;21038;-72
2022/08/14 07:53:38;;;;;;;9.83;7.28;;;;;;;28.38;100.00;99180.05;1835240;76;21016;-75
2022/08/14 07:56:06;;;;;;;13.83;8.13;;;;;;;28.53;100.00;99184.03;1850365;77;21320;-73
2022/08/14 07:58:36;;;;;;;10.80;7.37;;;;;;;28.61;100.00;99184.58;1847885;77;21046;-71
2022/08/14 08:01:07;;;;;;;11.93;7.42;;;;;;;28.74;100.00;99180.95;1847986;77;20986;-75
2022/08/14 08:03:43;;;;;;;10.03;7.40;;;;;;;28.82;100.00;99183.72;1848026;77;21687;-74
2022/08/14 08:06:10;;;;;;;11.85;7.03;;;;;;;28.95;100.00;99179.44;1848067;77;21053;-74
2022/08/14 08:08:39;;;;;;;12.75;6.70;;;;;;;29.08;100.00;99185.14;1848271;76;21016;-72
2022/08/14 08:11:09;;;;;;;7.55;6.40;;;;;;;29.22;100.00;99178.80;1851393;77;21049;-71
2022/08/14 08:13:48;;;;;;;9.10;6.95;;;;;;;29.37;100.00;99178.48;1849012;77;21038;-74
2022/08/14 08:16:14;;;;;;;10.50;7.37;;;;;;;29.49;100.00;99176.05;1846913;77;21076;-72
2022/08/14 08:18:45;;;;;;;9.73;6.65;;;;;;;29.63;100.00;99172.71;1846638;77;21007;-74
2022/08/14 08:21:12;;;;;;;9.88;7.28;;;;;;;29.67;100.00;99179.67;1847425;77;21057;-72
2022/08/14 08:23:39;;;;;;;10.85;6.83;;;;;;;29.76;100.00;99180.38;1777536;80;21509;-72
2022/08/14 08:26:08;;;;;;;12.07;7.05;;;;;;;29.84;100.00;99176.63;1844092;77;20989;-72
2022/08/14 08:28:34;;;;;;;9.40;6.85;;;;;;;29.99;100.00;99175.50;1849457;77;21224;-75
2022/08/14 08:31:07;;;;;;;11.68;6.65;;;;;;;30.05;100.00;99173.62;1821028;77;21289;-73
2022/08/14 08:33:37;;;;;;;7.97;6.47;;;;;;;30.10;100.00;99168.77;1848775;77;21075;-74
2022/08/14 08:36:10;;;;;;;7.85;6.53;;;;;;;30.17;100.00;99169.13;1849613;77;21045;-71
2022/08/14 08:38:36;;;;;;;18.87;6.85;;;;;;;30.29;100.00;99169.52;1850151;77;21101;-71
2022/08/14 08:41:03;;;;;;;8.83;6.72;;;;;;;30.39;100.00;99166.88;1847123;77;22207;-73
2022/08/14 08:43:35;;;;;;;8.23;6.08;;;;;;;30.54;100.00;99165.67;1787423;79;21051;-75
2022/08/14 08:46:14;;;;;;;15.32;6.87;;;;;;;30.71;100.00;99161.15;1770205;79;21051;-71
2022/08/14 08:48:52;;;;;;;10.32;5.85;;;;;;;30.77;100.00;99157.06;1799661;79;21003;-73
2022/08/14 08:51:30;;;;;;;11.85;7.20;;;;;;;30.90;100.00;99159.80;1801336;79;21054;-72
2022/08/14 08:54:12;;;;;;;14.15;6.95;;;;;;;31.02;100.00;99158.89;1801257;79;21189;-70
2022/08/14 08:56:45;;;;;;;10.68;6.97;;;;;;;31.13;100.00;99153.38;1792511;78;21570;-75
2022/08/14 08:59:31;;;;;;;9.63;6.92;;;;;;;31.14;100.00;99164.28;1787859;79;21011;-72
2022/08/14 09:02:04;;;;;;;7.45;6.45;;;;;;;31.18;100.00;99160.66;1801243;78;21026;-71
2022/08/14 09:04:40;;;;;;;8.48;5.97;;;;;;;31.15;100.00;99156.55;1818080;78;21004;-74
2022/08/14 09:07:10;;;;;;;12.90;6.15;;;;;;;31.24;100.00;99153.69;1793391;79;21033;-72
2022/08/14 09:09:51;;;;;;;9.30;5.53;;;;;;;31.36;100.00;99150.53;1829243;78;21678;-74
2022/08/14 09:12:21;;;;;;;13.75;6.72;;;;;;;31.39;100.00;99153.08;1826402;77;20992;-74
2022/08/14 09:14:52;;;;;;;7.75;6.10;;;;;;;31.40;100.00;99144.72;1778072;80;21044;-75
2022/08/14 09:17:18;;;;;;;10.63;6.55;;;;;;;31.45;100.00;99152.00;1851259;77;20969;-73
2022/08/14 09:19:45;;;;;;;6.92;5.92;;;;;;;31.49;100.00;99146.16;1825375;77;21535;-72
2022/08/14 09:22:12;;;;;;;8.08;6.22;;;;;;;31.56;100.00;99142.97;1810368;77;21542;-72
2022/08/14 09:24:41;;;;;;;11.88;6.22;;;;;;;31.63;100.00;99139.66;1828322;77;20980;-72
2022/08/14 09:27:10;;;;;;;9.05;5.92;;;;;;;31.64;100.00;99140.60;1790045;77;21106;-73
2022/08/14 09:29:37;;;;;;;9.70;6.03;;;;;;;31.68;100.00;99141.87;1824879;77;21031;-74
2022/08/14 09:32:05;;;;;;;9.05;6.00;;;;;;;31.78;100.00;99138.36;1820846;78;21335;-72
2022/08/14 09:35:00;;;;;;;10.25;6.05;;;;;;;31.82;100.00;99134.08;1831558;77;20992;-74
2022/08/14 09:37:59;;;;;;;8.05;6.10;;;;;;;31.86;100.00;99135.97;1828517;78;21011;-73
2022/08/14 09:41:15;;;;;;;14.03;6.95;;;;;;;31.82;100.00;99129.81;1828087;78;21003;-72
2022/08/14 09:44:09;;;;;;;9.70;5.92;;;;;;;31.88;100.00;99134.23;1826411;78;21016;-73
2022/08/14 09:46:39;;;;;;;13.25;6.33;;;;;;;31.95;100.00;99132.45;1831773;78;21027;-74
2022/08/14 09:49:07;;;;;;;11.35;6.22;;;;;;;32.02;100.00;99138.48;1798189;78;20972;-70
2022/08/14 09:51:35;;;;;;;8.83;6.45;;;;;;;32.10;100.00;99137.52;1835111;78;21028;-73
2022/08/14 09:54:11;;;;;;;15.68;6.62;;;;;;;32.16;100.00;99133.38;1829647;77;21024;-72
2022/08/14 09:56:46;;;;;;;11.80;6.00;;;;;;;32.19;100.00;99138.13;1837723;77;21016;-74
2022/08/14 09:59:16;;;;;;;10.18;5.78;;;;;;;32.23;100.00;99143.62;1837603;78;21670;-73
2022/08/14 10:01:48;;;;;;;9.13;5.72;;;;;;;32.25;100.00;99137.63;1837284;78;21457;-74
2022/08/14 10:04:23;;;;;;;8.75;5.58;;;;;;;32.21;100.00;99134.14;1835695;77;20999;-72
2022/08/14 10:06:52;;;;;;;17.07;6.03;;;;;;;32.39;100.00;99140.42;1832928;78;21043;-69
2022/08/14 10:09:21;;;;;;;11.88;6.28;;;;;;;32.44;100.00;99144.66;1834732;78;20975;-71
2022/08/14 10:11:58;;;;;;;11.38;6.87;;;;;;;32.47;100.00;99145.13;1832549;77;21136;-73
2022/08/14 10:14:31;;;;;;;10.40;5.75;;;;;;;32.47;100.00;99148.59;1828477;77;20963;-72
2022/08/14 10:17:05;;;;;;;14.53;7.45;;;;;;;32.45;100.00;99157.63;1814162;77;21521;-72
2022/08/14 10:19:34;;;;;;;56.75;42.65;;;;;;;32.40;100.00;99154.02;1832727;78;20998;-73
2022/08/14 10:22:07;;;;;;;13.62;10.95;;;;;;;32.29;100.00;99160.24;1847060;76;21038;-74
2022/08/14 10:24:45;;;;;;;14.03;6.58;;;;;;;32.16;98.82;99149.03;1815869;77;21173;-73
2022/08/14 10:27:24;;;;;;;13.55;10.25;;;;;;;32.08;98.66;99150.64;1845194;77;21511;-73
2022/08/14 10:29:59;;;;;;;10.55;6.47;;;;;;;31.99;99.79;99152.25;1850686;77;21434;-77
2022/08/14 10:32:29;;;;;;;8.95;5.83;;;;;;;31.95;100.00;99153.05;1849119;77;20965;-75
2022/08/14 10:35:07;;;;;;;8.98;7.22;;;;;;;31.99;100.00;99152.25;1819639;76;20963;-72
2022/08/14 10:37:40;;;;;;;8.48;5.55;;;;;;;32.03;100.00;99152.89;1817660;78;21470;-72
2022/08/14 10:40:07;;;;;;;11.83;5.70;;;;;;;32.09;100.00;99154.44;1807744;78;21061;-73
2022/08/14 10:42:42;;;;;;;11.78;5.70;;;;;;;32.14;100.00;99153.79;1831857;77;21005;-73
2022/08/14 10:45:23;;;;;;;19.75;5.90;;;;;;;32.18;100.00;99146.50;1825233;77;21087;-74
2022/08/14 10:47:51;;;;;;;10.43;5.67;;;;;;;32.22;100.00;99154.26;1800988;78;20992;-74
2022/08/14 10:50:34;;;;;;;14.55;5.55;;;;;;;32.30;100.00;99155.48;1816171;77;21595;-73
2022/08/14 10:53:04;;;;;;;15.27;6.50;;;;;;;32.34;100.00;99149.63;1820499;78;21018;-70
2022/08/14 10:55:42;;;;;;;6.92;5.53;;;;;;;32.45;100.00;99151.16;1828783;77;21001;-71
2022/08/14 10:58:10;;;;;;;11.22;5.80;;;;;;;32.52;100.00;99142.24;1843483;77;20975;-73
2022/08/14 11:00:41;;;;;;;15.32;6.03;;;;;;;32.64;100.00;99149.02;1845788;77;20987;-73
2022/08/14 11:03:17;;;;;;;12.63;5.97;;;;;;;32.74;100.00;99154.06;1846522;77;21087;-69
2022/08/14 11:05:49;;;;;;;10.75;6.10;;;;;;;32.82;100.00;99141.02;1841201;77;20985;-70
2022/08/14 11:08:20;;;;;;;12.93;6.33;;;;;;;32.94;100.00;99144.91;1842565;77;21058;-70
2022/08/14 11:10:55;;;;;;;8.48;5.67;;;;;;;33.06;100.00;99138.00;1842861;77;21499;-70
2022/08/14 11:13:29;;;;;;;11.12;6.05;;;;;;;33.15;100.00;99131.62;1848142;77;21030;-73
2022/08/14 11:16:01;;;;;;;10.32;5.65;;;;;;;33.28;99.84;99141.33;1815603;77;21030;-73
2022/08/14 11:18:29;;;;;;;8.18;6.00;;;;;;;33.40;98.59;99136.63;1842532;77;20986;-72
2022/08/14 11:20:59;;;;;;;9.30;5.03;;;;;;;33.53;97.93;99148.42;1850321;77;20998;-70
2022/08/14 11:23:38;;;;;;;7.75;5.08;;;;;;;33.64;95.40;99145.03;1837591;77;21637;-72
2022/08/14 11:26:07;;;;;;;9.98;5.42;;;;;;;33.68;95.93;99145.61;1835391;77;21053;-72
2022/08/14 11:28:42;;;;;;;9.25;4.92;;;;;;;33.71;92.44;99143.86;1844041;77;21123;-72
2022/08/14 11:31:14;;;;;;;7.78;5.70;;;;;;;33.62;91.82;99149.78;1845890;77;21097;-72
2022/08/14 11:33:40;;;;;;;7.97;4.97;;;;;;;33.56;92.19;99140.30;1847731;77;21024;-71
2022/08/14 11:36:12;;;;;;;9.75;5.25;;;;;;;33.48;92.20;99139.91;1846486;76;21016;-72
2022/08/14 11:38:44;;;;;;;9.18;5.50;;;;;;;33.41;94.35;99143.14;1853585;75;21524;-73
2022/08/14 11:41:12;;;;;;;7.70;4.62;;;;;;;33.39;96.08;99142.20;1843495;76;21473;-74
2022/08/14 11:43:42;;;;;;;5.90;5.08;;;;;;;33.42;95.46;99143.94;1842232;76;20985;-72
2022/08/14 11:46:09;;;;;;;10.58;5.42;;;;;;;33.46;94.80;99131.05;1838675;77;21102;-70
2022/08/14 11:48:50;;;;;;;16.57;6.40;;;;;;;33.32;95.36;99131.16;1837938;77;21070;-74
2022/08/14 11:51:25;;;;;;;6.30;5.10;;;;;;;33.35;96.30;99137.97;1845829;76;21508;-73
2022/08/14 11:53:55;;;;;;;10.43;5.15;;;;;;;33.39;97.00;99145.69;1841186;77;21254;-72